createdAt,value
2022-10-17T00:00:01.051Z,4.13
2022-10-17T00:03:03.923Z,4.20
2022-10-17T00:06:14.848Z,4.35
2022-10-17T00:09:17.306Z,4.60
2022-10-17T00:12:20.275Z,5.12
2022-10-17T00:15:23.274Z,4.60
2022-10-17T00:18:26.288Z,4.43
2022-10-17T00:21:29.038Z,4.57
2022-10-17T00:24:31.954Z,4.75
2022-10-17T00:27:36.588Z,5.00
2022-10-17T00:30:39.905Z,5.00
2022-10-17T00:33:44.112Z,4.32
2022-10-17T00:36:46.925Z,4.80
2022-10-17T00:39:49.664Z,4.55
2022-10-17T00:42:53.425Z,5.05
2022-10-17T00:45:56.889Z,4.47
2022-10-17T00:49:08.767Z,4.53
2022-10-17T00:52:37.550Z,4.82
2022-10-17T00:55:51.877Z,4.22
2022-10-17T00:58:56.370Z,3.83
2022-10-17T01:02:05.845Z,5.23
2022-10-17T01:05:08.995Z,4.30
2022-10-17T01:08:12.480Z,4.30
2022-10-17T01:11:36.921Z,4.07
2022-10-17T01:14:42.359Z,4.12
2022-10-17T01:17:50.963Z,3.93
2022-10-17T01:20:56.742Z,4.30
2022-10-17T01:24:26.459Z,4.10
2022-10-17T01:27:42.483Z,4.65
2022-10-17T01:31:08.771Z,4.05
2022-10-17T01:34:39.387Z,4.00
2022-10-17T01:41:07.648Z,4.40
2022-10-17T01:44:16.175Z,4.78
2022-10-17T01:47:22.139Z,4.70
2022-10-17T01:50:31.014Z,4.90
2022-10-17T01:53:38.711Z,5.28
2022-10-17T01:56:42.926Z,5.15
2022-10-17T01:59:48.770Z,4.53
2022-10-17T02:02:55.449Z,5.12
2022-10-17T02:05:58.251Z,4.83
2022-10-17T02:09:00.808Z,5.25
2022-10-17T02:12:30.338Z,5.20
2022-10-17T02:16:02.294Z,5.35
2022-10-17T02:19:26.699Z,5.50
2022-10-17T02:22:41.604Z,5.23
2022-10-17T02:26:06.434Z,5.53
2022-10-17T02:29:19.808Z,5.30
2022-10-17T02:32:40.395Z,5.82
2022-10-17T02:35:47.775Z,5.65
2022-10-17T02:38:51.930Z,6.13
2022-10-17T02:41:56.460Z,5.78
2022-10-17T02:45:01.178Z,6.30
2022-10-17T02:48:07.063Z,5.55
2022-10-17T02:51:38.146Z,6.07
2022-10-17T02:54:41.984Z,6.47
2022-10-17T02:57:54.091Z,6.37
2022-10-17T03:00:57.046Z,6.32
2022-10-17T03:04:12.393Z,6.12
2022-10-17T03:07:14.909Z,7.20
2022-10-17T03:10:18.599Z,7.10
2022-10-17T03:13:21.469Z,7.07
2022-10-17T03:16:25.387Z,6.75
2022-10-17T03:19:27.958Z,6.80
2022-10-17T03:22:31.438Z,6.68
2022-10-17T03:25:35.348Z,6.07
2022-10-17T03:28:38.353Z,6.53
2022-10-17T03:31:40.972Z,6.60
2022-10-17T03:34:44.110Z,6.47
2022-10-17T03:37:46.668Z,6.22
2022-10-17T03:40:56.597Z,6.53
2022-10-17T03:43:59.371Z,6.20
2022-10-17T03:47:03.072Z,7.35
2022-10-17T03:50:06.621Z,6.75
2022-10-17T03:53:09.800Z,7.30
2022-10-17T03:56:23.927Z,7.00
2022-10-17T03:59:27.748Z,6.85
2022-10-17T04:02:30.959Z,6.28
2022-10-17T04:05:33.817Z,6.57
2022-10-17T04:08:36.475Z,6.43
2022-10-17T04:11:40.413Z,7.30
2022-10-17T04:14:43.066Z,6.75
2022-10-17T04:17:48.497Z,7.03
2022-10-17T04:20:51.741Z,6.93
2022-10-17T04:23:56.448Z,7.25
2022-10-17T04:27:01.632Z,6.87
2022-10-17T04:30:04.852Z,6.40
2022-10-17T04:33:07.933Z,6.82
2022-10-17T04:36:18.413Z,7.40
2022-10-17T04:39:20.969Z,7.28
2022-10-17T04:42:23.806Z,7.50
2022-10-17T04:45:26.933Z,7.62
2022-10-17T04:48:32.390Z,7.03
2022-10-17T04:51:34.975Z,6.65
2022-10-17T04:54:39.593Z,7.90
2022-10-17T04:57:42.307Z,8.03
2022-10-17T05:00:45.765Z,6.25
2022-10-17T05:03:48.895Z,6.45
2022-10-17T05:06:52.119Z,6.47
2022-10-17T05:09:58.785Z,6.85
2022-10-17T05:13:01.648Z,5.93
2022-10-17T05:16:05.133Z,6.65
2022-10-17T05:19:07.978Z,7.00
2022-10-17T05:22:11.405Z,6.60
2022-10-17T05:25:14.997Z,6.65
2022-10-17T05:28:17.750Z,7.73
2022-10-17T05:31:22.005Z,7.10
2022-10-17T05:34:25.136Z,7.28
2022-10-17T05:37:29.546Z,8.13
2022-10-17T05:40:34.539Z,7.22
2022-10-17T05:43:38.263Z,6.83
2022-10-17T05:46:41.285Z,8.02
2022-10-17T05:49:48.531Z,7.07
2022-10-17T05:52:55.114Z,8.07
2022-10-17T05:55:59.617Z,7.80
2022-10-17T05:59:02.474Z,7.23
2022-10-17T06:02:06.056Z,6.97
2022-10-17T06:05:09.122Z,7.20
2022-10-17T06:08:11.934Z,7.15
2022-10-17T06:11:18.503Z,7.45
2022-10-17T06:14:21.753Z,6.80
2022-10-17T06:17:25.692Z,7.60
2022-10-17T06:20:28.566Z,8.75
2022-10-17T06:23:31.759Z,8.15
2022-10-17T06:26:35.336Z,8.00
2022-10-17T06:29:38.250Z,7.53
2022-10-17T06:32:41.822Z,7.60
2022-10-17T06:35:44.675Z,7.93
2022-10-17T06:38:47.468Z,7.90
2022-10-17T06:41:52.110Z,7.95
2022-10-17T06:44:55.065Z,7.80
2022-10-17T06:47:58.025Z,7.78
2022-10-17T06:51:02.332Z,7.80
2022-10-17T06:54:08.125Z,7.57
2022-10-17T06:57:11.334Z,8.32
2022-10-17T07:00:15.129Z,7.27
2022-10-17T07:03:17.966Z,8.00
2022-10-17T07:06:20.775Z,8.13
2022-10-17T07:09:24.293Z,7.37
2022-10-17T07:12:27.411Z,7.85
2022-10-17T07:15:32.456Z,7.60
2022-10-17T07:18:35.983Z,8.27
2022-10-17T07:21:39.349Z,7.80
2022-10-17T07:24:42.774Z,7.22
2022-10-17T07:27:49.386Z,7.68
2022-10-17T07:30:53.805Z,7.03
2022-10-17T07:33:59.575Z,5.45
2022-10-17T07:37:03.340Z,7.10
2022-10-17T07:40:07.528Z,6.85
2022-10-17T07:43:10.585Z,6.53
2022-10-17T07:46:13.302Z,6.60
2022-10-17T07:49:16.391Z,6.80
2022-10-17T07:52:18.998Z,6.85
2022-10-17T07:55:21.793Z,7.20
2022-10-17T07:58:24.407Z,6.75
2022-10-17T08:01:28.236Z,6.47
2022-10-17T08:04:31.163Z,6.55
2022-10-17T08:07:33.671Z,6.37
2022-10-17T08:10:36.952Z,5.82
2022-10-17T08:13:40.334Z,6.18
2022-10-17T08:16:43.456Z,5.77
2022-10-17T08:19:46.010Z,5.90
2022-10-17T08:22:53.066Z,6.07
2022-10-17T08:25:59.277Z,4.75
2022-10-17T08:29:02.250Z,5.20
2022-10-17T08:32:07.619Z,4.87
2022-10-17T08:35:11.936Z,5.20
2022-10-17T08:38:15.281Z,4.90
2022-10-17T08:41:34.353Z,4.95
2022-10-17T08:44:45.728Z,4.78
2022-10-17T08:47:54.943Z,4.30
2022-10-17T08:51:33.223Z,4.55
2022-10-17T08:54:43.028Z,4.30
2022-10-17T08:57:47.957Z,4.80
2022-10-17T09:01:19.644Z,4.07
2022-10-17T09:04:37.892Z,4.13
2022-10-17T09:08:06.390Z,4.37
2022-10-17T09:11:20.955Z,4.55
2022-10-17T09:15:05.815Z,3.10
2022-10-17T09:18:21.145Z,3.72
2022-10-17T09:21:44.683Z,3.70
2022-10-17T09:24:55.548Z,3.95
2022-10-17T09:28:11.142Z,4.95
2022-10-17T09:31:29.587Z,3.58
2022-10-17T09:34:33.000Z,3.28
2022-10-17T09:37:35.466Z,3.83
2022-10-17T09:40:38.335Z,3.40
2022-10-17T09:43:41.445Z,3.30
2022-10-17T09:47:10.575Z,3.65
2022-10-17T09:50:25.094Z,3.53
2022-10-17T09:53:32.311Z,3.20
2022-10-17T09:57:01.222Z,3.20
2022-10-17T10:00:06.491Z,3.25
2022-10-17T10:03:16.172Z,2.92
2022-10-17T10:06:20.480Z,2.80
2022-10-17T10:09:25.953Z,3.67
2022-10-17T10:12:34.997Z,3.22
2022-10-17T10:15:41.402Z,3.60
2022-10-17T10:18:48.662Z,2.90
2022-10-17T10:21:57.900Z,3.30
2022-10-17T10:25:08.589Z,3.20
2022-10-17T10:28:12.051Z,3.00
2022-10-17T10:31:14.870Z,3.35
2022-10-17T10:34:29.495Z,3.60
2022-10-17T10:37:41.142Z,3.45
2022-10-17T10:40:47.368Z,3.03
2022-10-17T10:43:51.679Z,3.17
2022-10-17T10:47:17.153Z,3.25
2022-10-17T10:50:45.085Z,3.30
2022-10-17T10:54:16.012Z,3.55
2022-10-17T10:57:21.773Z,3.40
2022-10-17T11:00:26.807Z,3.28
2022-10-17T11:03:36.451Z,3.40
2022-10-17T11:06:42.350Z,3.45
2022-10-17T11:09:45.074Z,3.45
2022-10-17T11:12:52.492Z,3.77
2022-10-17T11:16:18.270Z,3.80
2022-10-17T11:19:35.755Z,3.80
2022-10-17T11:22:47.765Z,3.87
2022-10-17T11:25:51.952Z,3.72
2022-10-17T11:28:56.036Z,3.63
2022-10-17T11:32:03.982Z,4.15
2022-10-17T11:35:15.668Z,3.90
2022-10-17T11:38:40.598Z,4.22
2022-10-17T11:41:55.426Z,4.00
2022-10-17T11:45:08.115Z,4.00
2022-10-17T11:48:22.138Z,3.87
2022-10-17T11:54:53.086Z,3.90
2022-10-17T11:58:23.110Z,4.00
2022-10-17T12:01:33.059Z,3.83
2022-10-17T12:04:57.293Z,3.83
2022-10-17T12:08:15.786Z,4.57
2022-10-17T12:11:34.600Z,4.22
2022-10-17T12:14:41.601Z,4.40
2022-10-17T12:17:45.481Z,4.07
2022-10-17T12:20:59.261Z,3.65
2022-10-17T12:24:01.970Z,3.60
2022-10-17T12:27:34.405Z,3.55
2022-10-17T12:30:37.550Z,3.90
2022-10-17T12:33:45.988Z,3.63
2022-10-17T12:36:48.888Z,3.12
2022-10-17T12:39:51.455Z,3.53
2022-10-17T12:42:54.288Z,2.80
2022-10-17T12:45:58.209Z,3.30
2022-10-17T12:49:03.202Z,3.03
2022-10-17T12:52:14.946Z,3.17
2022-10-17T12:55:19.515Z,3.40
2022-10-17T12:58:22.023Z,2.80
2022-10-17T13:01:29.038Z,2.70
2022-10-17T13:04:32.031Z,2.57
2022-10-17T13:07:36.145Z,3.40
2022-10-17T13:10:41.797Z,2.72
2022-10-17T13:13:52.217Z,2.62
2022-10-17T13:17:00.956Z,2.20
2022-10-17T13:20:04.183Z,2.60
2022-10-17T13:23:06.656Z,2.42
2022-10-17T13:26:12.358Z,2.80
2022-10-17T13:29:15.983Z,2.67
2022-10-17T13:32:18.973Z,2.28
2022-10-17T13:35:55.274Z,2.60
2022-10-17T13:38:54.147Z,2.65
2022-10-17T13:41:58.124Z,2.37
2022-10-17T13:45:00.883Z,2.60
2022-10-17T13:48:05.861Z,2.28
2022-10-17T13:51:11.086Z,2.80
2022-10-17T13:54:26.087Z,3.72
2022-10-17T13:57:31.856Z,4.00
2022-10-17T14:00:35.923Z,2.60
2022-10-17T14:03:48.246Z,2.30
2022-10-17T14:06:52.553Z,2.80
2022-10-17T14:09:55.439Z,2.47
2022-10-17T14:12:58.499Z,2.50
2022-10-17T14:16:03.162Z,2.40
2022-10-17T14:19:07.279Z,2.50
2022-10-17T14:22:17.811Z,3.10
2022-10-17T14:25:38.269Z,2.37
2022-10-17T14:28:43.111Z,3.87
2022-10-17T14:31:47.654Z,4.15
2022-10-17T14:35:05.559Z,2.53
2022-10-17T14:38:15.673Z,2.40
2022-10-17T14:41:42.273Z,2.40
2022-10-17T14:44:52.166Z,3.03
2022-10-17T14:47:59.918Z,2.83
2022-10-17T14:51:16.342Z,2.58
2022-10-17T14:54:27.001Z,2.70
2022-10-17T14:57:43.383Z,3.10
2022-10-17T15:00:46.288Z,2.72
2022-10-17T15:03:48.776Z,2.85
2022-10-17T15:06:54.809Z,3.00
2022-10-17T15:09:57.401Z,3.10
2022-10-17T15:13:26.262Z,3.25
2022-10-17T15:16:25.949Z,4.07
2022-10-17T15:19:28.669Z,4.18
2022-10-17T15:22:31.701Z,2.72
2022-10-17T15:25:34.932Z,2.90
2022-10-17T15:28:37.705Z,2.80
2022-10-17T15:31:41.628Z,2.87
2022-10-17T15:34:44.585Z,2.70
2022-10-17T15:37:47.636Z,2.40
2022-10-17T15:40:52.068Z,2.80
2022-10-17T15:43:54.959Z,2.67
2022-10-17T15:46:57.454Z,2.47
2022-10-17T15:50:01.143Z,2.92
2022-10-17T15:53:05.854Z,3.10
2022-10-17T15:56:22.400Z,2.77
2022-10-17T15:59:31.624Z,2.80
2022-10-17T16:02:34.388Z,2.33
2022-10-17T16:05:37.241Z,2.70
2022-10-17T16:08:39.699Z,2.50
2022-10-17T16:11:43.424Z,2.57
2022-10-17T16:14:45.948Z,2.83
2022-10-17T16:17:49.530Z,3.05
2022-10-17T16:20:53.298Z,2.97
2022-10-17T16:23:56.349Z,2.87
2022-10-17T16:26:58.790Z,2.70
2022-10-17T16:30:01.838Z,3.10
2022-10-17T16:33:04.336Z,2.85
2022-10-17T16:36:07.390Z,3.47
2022-10-17T16:39:09.917Z,3.45
2022-10-17T16:42:13.238Z,2.90
2022-10-17T16:45:21.387Z,3.05
2022-10-17T16:48:29.529Z,2.87
2022-10-17T16:51:35.775Z,2.97
2022-10-17T16:54:39.140Z,3.92
2022-10-17T17:00:52.273Z,3.20
2022-10-17T17:03:55.466Z,3.53
2022-10-17T17:06:58.316Z,3.75
2022-10-17T17:10:00.898Z,3.17
2022-10-17T17:13:04.487Z,3.40
2022-10-17T17:16:08.564Z,2.90
2022-10-17T17:19:14.420Z,3.40
2022-10-17T17:22:16.868Z,3.40
2022-10-17T17:25:19.701Z,3.40
2022-10-17T17:28:22.402Z,3.40
2022-10-17T17:31:28.237Z,4.07
2022-10-17T17:34:32.427Z,4.00
2022-10-17T17:37:35.634Z,3.60
2022-10-17T17:40:50.385Z,4.43
2022-10-17T17:43:54.093Z,7.73
2022-10-17T17:46:56.567Z,12.18
2022-10-17T17:49:59.365Z,11.02
2022-10-17T17:53:01.856Z,9.20
2022-10-17T17:56:05.844Z,6.62
2022-10-17T17:59:11.420Z,6.17
2022-10-17T18:02:14.933Z,4.65
2022-10-17T18:05:17.863Z,4.80
2022-10-17T18:08:20.414Z,4.62
2022-10-17T18:11:23.307Z,4.87
2022-10-17T18:14:25.988Z,4.13
2022-10-17T18:17:31.435Z,3.80
2022-10-17T18:20:35.337Z,3.95
2022-10-17T18:23:40.765Z,3.97
2022-10-17T18:26:43.431Z,3.97
2022-10-17T18:29:46.303Z,4.33
2022-10-17T18:32:48.812Z,5.20
2022-10-17T18:35:51.817Z,6.37
2022-10-17T18:38:55.148Z,5.28
2022-10-17T18:41:58.043Z,3.92
2022-10-17T18:45:00.691Z,4.40
2022-10-17T18:48:03.544Z,4.62
2022-10-17T18:51:06.571Z,4.18
2022-10-17T18:54:20.297Z,4.50
2022-10-17T18:57:26.007Z,3.75
2022-10-17T19:00:30.397Z,4.10
2022-10-17T19:03:33.081Z,4.07
2022-10-17T19:06:35.840Z,4.28
2022-10-17T19:09:38.870Z,4.15
2022-10-17T19:12:42.248Z,4.68
2022-10-17T19:15:44.877Z,4.50
2022-10-17T19:18:52.277Z,4.22
2022-10-17T19:21:55.033Z,4.62
2022-10-17T19:24:57.811Z,4.53
2022-10-17T19:28:00.515Z,5.22
2022-10-17T19:31:03.579Z,4.70
2022-10-17T19:34:06.119Z,4.43
2022-10-17T19:37:08.967Z,5.28
2022-10-17T19:40:12.344Z,5.32
2022-10-17T19:43:15.131Z,6.12
2022-10-17T19:46:22.294Z,5.30
2022-10-17T19:49:25.051Z,4.68
2022-10-17T19:52:28.102Z,5.03
2022-10-17T19:55:32.678Z,4.50
2022-10-17T19:58:44.839Z,4.35
2022-10-17T20:01:47.645Z,4.80
2022-10-17T20:05:00.134Z,3.97
2022-10-17T20:08:13.880Z,4.18
2022-10-17T20:11:26.650Z,4.50
2022-10-17T20:14:29.195Z,3.95
2022-10-17T20:17:32.413Z,3.97
2022-10-17T20:20:35.648Z,3.78
2022-10-17T20:23:39.793Z,4.10
2022-10-17T20:26:42.619Z,3.92
2022-10-17T20:29:45.461Z,3.53
2022-10-17T20:32:48.012Z,3.50
2022-10-17T20:35:50.838Z,4.05
2022-10-17T20:38:55.139Z,4.68
2022-10-17T20:41:58.083Z,4.53
2022-10-17T20:45:00.492Z,3.90
2022-10-17T20:48:04.309Z,3.40
2022-10-17T20:51:08.699Z,3.60
2022-10-17T20:54:11.943Z,3.60
2022-10-17T20:57:14.485Z,3.70
2022-10-17T21:00:17.170Z,4.30
2022-10-17T21:03:19.569Z,3.70
2022-10-17T21:06:23.191Z,4.20
2022-10-17T21:09:26.067Z,4.00
2022-10-17T21:12:36.758Z,3.65
2022-10-17T21:15:45.448Z,3.90
2022-10-17T21:18:49.435Z,3.90
2022-10-17T21:21:52.023Z,3.28
2022-10-17T21:24:54.824Z,3.92
2022-10-17T21:27:57.292Z,2.95
2022-10-17T21:31:21.101Z,3.45
2022-10-17T21:34:25.023Z,3.23
2022-10-17T21:37:27.958Z,3.42
2022-10-17T21:40:30.593Z,3.40
2022-10-17T21:43:34.250Z,3.28
2022-10-17T21:46:36.706Z,3.30
2022-10-17T21:49:39.488Z,3.50
2022-10-17T21:52:41.961Z,3.78
2022-10-17T21:55:44.754Z,3.35
2022-10-17T21:58:47.957Z,3.10
2022-10-17T22:01:50.845Z,3.92
2022-10-17T22:04:53.625Z,3.73
2022-10-17T22:07:56.127Z,3.62
2022-10-17T22:11:04.532Z,3.42
2022-10-17T22:14:13.137Z,3.40
2022-10-17T22:17:15.853Z,3.45
2022-10-17T22:20:20.011Z,3.87
2022-10-17T22:23:22.741Z,3.80
2022-10-17T22:26:26.234Z,3.87
2022-10-17T22:29:29.069Z,3.37
2022-10-17T22:32:31.579Z,3.78
2022-10-17T22:35:34.431Z,3.77
2022-10-17T22:38:37.434Z,3.70
2022-10-17T22:41:40.385Z,3.75
2022-10-17T22:44:42.990Z,4.07
2022-10-17T22:47:45.709Z,4.32
2022-10-17T22:50:49.598Z,3.70
2022-10-17T22:53:52.322Z,3.72
2022-10-17T22:56:54.827Z,3.87
2022-10-17T22:59:57.619Z,3.87
2022-10-17T23:03:00.098Z,4.10
2022-10-17T23:06:03.745Z,3.90
2022-10-17T23:09:06.297Z,4.12
2022-10-17T23:12:09.731Z,4.18
2022-10-17T23:15:12.179Z,3.97
2022-10-17T23:18:15.181Z,4.90
2022-10-17T23:21:17.780Z,5.37
2022-10-17T23:24:20.524Z,5.53
2022-10-17T23:27:23.345Z,5.28
2022-10-17T23:30:26.464Z,4.93
2022-10-17T23:33:29.231Z,6.20
2022-10-17T23:39:34.542Z,6.12
2022-10-17T23:42:37.332Z,6.10
2022-10-17T23:48:43.523Z,7.28
2022-10-17T23:51:46.011Z,7.13
2022-10-17T23:54:48.744Z,7.00
2022-10-17T23:57:51.197Z,7.60
